Time;durP1;ratioP1;P1;durP2;ratioP2;P2;SDS_P1;SDS_P2;PMS_P1;PMS_P2;Temp;Humidity;BMP_temperature;BMP_pressure;BME280_temperature;BME280_humidity;BME280_pressure;Samples;Min_cycle;Max_cycle;Signal;HPM_P1;HPM_P2
2022/11/28 00:01:43;;;;;;;16.20;2.60;;;;;;;6.24;100.00;98843.13;4876317;29;20036;-91
2022/11/28 00:04:14;;;;;;;14.00;2.13;;;;;;;6.18;100.00;98835.91;4846297;29;20044;-92
2022/11/28 00:06:53;;;;;;;9.93;1.70;;;;;;;6.18;100.00;98828.03;4861352;29;20048;-92
2022/11/28 00:09:33;;;;;;;8.90;1.60;;;;;;;6.11;100.00;98824.34;4862065;29;20041;-92
2022/11/28 00:12:03;;;;;;;18.55;2.03;;;;;;;6.08;100.00;98826.31;4852608;29;20061;-91
2022/11/28 00:14:35;;;;;;;13.05;1.83;;;;;;;6.02;100.00;98823.47;4856227;29;20454;-91
2022/11/28 00:17:05;;;;;;;14.23;1.60;;;;;;;6.02;100.00;98836.59;4848404;29;20041;-91
2022/11/28 00:19:35;;;;;;;15.02;1.80;;;;;;;6.03;100.00;98830.34;4851351;29;20474;-89
2022/11/28 00:22:05;;;;;;;17.73;2.08;;;;;;;6.02;100.00;98841.84;4871429;29;20032;-90
2022/11/28 00:24:34;;;;;;;15.93;2.50;;;;;;;6.03;100.00;98828.56;4860672;29;20076;-91
2022/11/28 00:27:03;;;;;;;13.30;2.75;;;;;;;6.02;100.00;98826.91;4870821;29;20047;-92
2022/11/28 00:29:31;;;;;;;23.50;3.10;;;;;;;6.03;100.00;98841.69;4875380;29;20131;-91
2022/11/28 00:32:00;;;;;;;22.67;2.97;;;;;;;6.10;100.00;98846.34;4861039;29;20136;-95
2022/11/28 00:34:43;;;;;;;19.08;2.83;;;;;;;6.11;100.00;98848.81;4906646;29;20124;-96
2022/11/28 00:37:27;;;;;;;16.80;2.70;;;;;;;6.12;100.00;98837.31;4879217;29;20065;-92
2022/11/28 00:39:57;;;;;;;21.27;3.08;;;;;;;6.21;100.00;98851.31;4886215;29;20060;-91
2022/11/28 00:42:39;;;;;;;14.40;2.45;;;;;;;6.17;100.00;98837.69;4890033;29;20502;-96
2022/11/28 00:45:41;;;;;;;20.60;3.08;;;;;;;6.18;100.00;98841.13;4882066;29;20048;-96
2022/11/28 00:48:33;;;;;;;18.33;2.67;;;;;;;6.23;100.00;98843.28;4868935;29;20028;-94
2022/11/28 00:51:27;;;;;;;22.65;4.35;;;;;;;6.26;100.00;98843.78;4894335;29;20044;-91
2022/11/28 00:53:58;;;;;;;18.10;2.53;;;;;;;6.25;100.00;98852.66;4907561;29;20136;-90
2022/11/28 00:56:35;;;;;;;25.35;4.45;;;;;;;6.22;100.00;98847.72;4870247;29;20040;-92
2022/11/28 00:59:06;;;;;;;21.77;3.13;;;;;;;6.26;100.00;98856.91;4883238;29;20032;-91
2022/11/28 01:01:38;;;;;;;14.80;2.50;;;;;;;6.24;100.00;98850.19;4879340;29;20115;-92
2022/11/28 01:04:10;;;;;;;16.92;2.58;;;;;;;6.27;100.00;98847.25;4882518;29;20115;-92
2022/11/28 01:06:50;;;;;;;15.38;3.13;;;;;;;6.27;100.00;98848.06;4890608;29;20036;-91
2022/11/28 01:09:29;;;;;;;17.25;2.65;;;;;;;6.25;100.00;98852.66;4861383;29;20068;-92
2022/11/28 01:12:04;;;;;;;25.65;3.78;;;;;;;6.26;100.00;98843.78;4882392;29;20513;-91
2022/11/28 01:14:39;;;;;;;20.08;2.35;;;;;;;6.22;100.00;98836.38;4875792;29;20127;-92
2022/11/28 01:17:14;;;;;;;21.48;3.25;;;;;;;6.17;100.00;98826.34;4877967;29;20115;-95
2022/11/28 01:20:09;;;;;;;23.42;3.25;;;;;;;6.22;100.00;98841.63;4864847;29;20032;-95
2022/11/28 01:22:46;;;;;;;19.67;2.97;;;;;;;6.22;100.00;98836.38;4879984;29;20036;-92
2022/11/28 01:25:19;;;;;;;21.42;4.38;;;;;;;6.26;100.00;98838.53;4866830;29;20045;-91
2022/11/28 01:27:58;;;;;;;24.77;4.05;;;;;;;6.26;100.00;98838.53;4882435;29;20482;-92
2022/11/28 01:30:26;;;;;;;20.23;3.45;;;;;;;6.24;100.00;98837.88;4881374;29;20075;-92
2022/11/28 01:33:04;;;;;;;11.88;2.13;;;;;;;6.29;100.00;98843.47;4880610;29;20041;-95
2022/11/28 01:35:40;;;;;;;27.77;3.90;;;;;;;6.31;100.00;98841.53;4896277;29;20119;-96
2022/11/28 01:38:13;;;;;;;26.48;2.90;;;;;;;6.30;100.00;98842.50;4864920;29;20041;-92
2022/11/28 01:40:51;;;;;;;17.40;2.75;;;;;;;6.26;100.00;98829.88;4898810;29;20040;-93
2022/11/28 01:43:25;;;;;;;33.90;3.53;;;;;;;6.30;100.00;98832.00;4867241;29;20040;-92
2022/11/28 01:45:54;;;;;;;16.70;2.78;;;;;;;6.31;100.00;98833.66;4874305;29;20049;-91
2022/11/28 01:48:28;;;;;;;23.75;2.72;;;;;;;6.31;100.00;98827.56;4858268;29;20041;-91
2022/11/28 01:50:59;;;;;;;24.65;4.65;;;;;;;6.33;100.00;98829.06;4880593;29;20123;-91
2022/11/28 01:53:34;;;;;;;24.92;3.08;;;;;;;6.36;100.00;98824.47;4887033;29;20530;-91
2022/11/28 01:56:09;;;;;;;22.08;2.55;;;;;;;6.36;100.00;98827.09;4848594;29;20483;-91
2022/11/28 01:58:42;;;;;;;18.63;1.92;;;;;;;6.33;100.00;98821.19;4875417;29;20135;-91
2022/11/28 02:01:10;;;;;;;18.23;2.75;;;;;;;6.33;100.00;98821.19;4881949;29;20047;-92
2022/11/28 02:03:45;;;;;;;19.55;2.15;;;;;;;6.33;100.00;98823.00;4884817;29;20482;-91
2022/11/28 02:06:17;;;;;;;14.10;3.17;;;;;;;6.32;100.00;98829.22;4883797;29;20041;-92
2022/11/28 02:08:46;;;;;;;20.38;2.80;;;;;;;6.29;100.00;98840.03;4878358;29;20041;-91
2022/11/28 02:11:34;;;;;;;19.50;2.55;;;;;;;6.30;100.00;98842.50;4882229;29;20041;-95
2022/11/28 02:14:15;;;;;;;16.30;2.15;;;;;;;6.29;100.00;98843.47;4882511;29;20041;-95
2022/11/28 02:16:56;;;;;;;15.23;2.60;;;;;;;6.31;100.00;98840.69;4896934;29;20493;-94
2022/11/28 02:20:02;;;;;;;19.85;3.63;;;;;;;6.29;100.00;98837.41;4872873;29;20033;-95
2022/11/28 02:22:39;;;;;;;17.45;2.05;;;;;;;6.30;100.00;98842.50;4882035;29;20119;-94
2022/11/28 02:25:38;;;;;;;16.23;3.28;;;;;;;6.26;100.00;98825.41;4881238;29;20135;-95
2022/11/28 02:28:36;;;;;;;17.45;2.30;;;;;;;6.30;100.00;98841.69;4877032;29;20048;-92
2022/11/28 02:31:43;;;;;;;23.60;2.53;;;;;;;6.29;100.00;98847.91;4879339;29;20041;-92
2022/11/28 02:34:51;;;;;;;14.30;2.10;;;;;;;6.30;100.00;98846.94;4896675;29;20569;-92
2022/11/28 02:37:25;;;;;;;11.23;1.83;;;;;;;6.31;100.00;98853.81;4881114;29;20042;-92
2022/11/28 02:40:19;;;;;;;15.88;1.98;;;;;;;6.31;100.00;98859.06;4863098;29;20099;-91
2022/11/28 02:43:15;;;;;;;16.70;2.63;;;;;;;6.36;100.00;98859.41;4863356;29;20040;-90
2022/11/28 02:45:50;;;;;;;17.73;2.05;;;;;;;6.42;100.00;98860.59;4877946;29;20037;-91
2022/11/28 02:48:36;;;;;;;;;;;;;;;6.41;100.00;98861.56;4881683;29;20063;-91
2022/11/28 02:51:15;;;;;;;20.08;1.83;;;;;;;6.52;100.00;98866.56;4881521;29;19915;-91
2022/11/28 02:53:46;;;;;;;11.27;1.60;;;;;;;6.57;100.00;98872.16;4881558;29;20136;-92
2022/11/28 02:56:16;;;;;;;14.15;2.17;;;;;;;6.63;100.00;98877.75;4867186;29;20037;-91
2022/11/28 02:58:45;;;;;;;12.55;2.00;;;;;;;6.65;100.00;98873.16;4882445;29;20044;-90
2022/11/28 03:01:19;;;;;;;13.77;1.20;;;;;;;6.69;100.00;98877.94;4875580;29;20120;-91
2022/11/28 03:03:57;;;;;;;18.02;2.38;;;;;;;6.70;100.00;98882.22;4876012;29;20486;-91
2022/11/28 03:06:33;;;;;;;12.70;2.63;;;;;;;6.74;100.00;98872.22;4881212;29;20191;-91
2022/11/28 03:09:05;;;;;;;20.27;2.47;;;;;;;6.73;100.00;98872.38;4880787;29;20132;-91
2022/11/28 03:11:41;;;;;;;9.15;1.48;;;;;;;6.74;100.00;98880.09;4895391;29;20024;-91
2022/11/28 03:14:28;;;;;;;;;;;;;;;6.65;100.00;98881.88;4866397;29;20068;-91
2022/11/28 03:17:40;;;;;;;11.77;2.60;;;;;;;6.67;100.00;98869.41;4865692;29;19929;-91
2022/11/28 03:20:31;;;;;;;11.15;1.50;;;;;;;6.66;100.00;98874.81;4857890;29;20037;-91
2022/11/28 03:23:10;;;;;;;11.80;1.50;;;;;;;6.62;100.00;98884.81;4877000;29;20056;-91
2022/11/28 03:25:48;;;;;;;8.57;1.70;;;;;;;6.56;100.00;98893.31;4870299;29;20049;-90
2022/11/28 03:28:27;;;;;;;17.73;1.88;;;;;;;6.53;100.00;98897.06;4876934;29;20101;-90
2022/11/28 03:31:22;;;;;;;9.02;1.40;;;;;;;6.50;100.00;98893.94;4864482;29;20406;-91
2022/11/28 03:33:56;;;;;;;7.97;1.13;;;;;;;6.45;100.00;98897.84;4882311;29;20048;-91
2022/11/28 03:36:31;;;;;;;6.10;1.35;;;;;;;6.41;100.00;98901.78;4895366;29;20521;-91
2022/11/28 03:39:15;;;;;;;9.18;1.50;;;;;;;6.36;100.00;98892.69;4881475;29;20047;-91
2022/11/28 03:41:58;;;;;;;13.45;2.10;;;;;;;6.30;100.00;98900.25;4858905;29;20406;-91
2022/11/28 03:44:35;;;;;;;14.32;1.90;;;;;;;6.24;100.00;98895.63;4911699;29;20036;-91
2022/11/28 03:47:05;;;;;;;11.18;1.38;;;;;;;6.18;100.00;98912.78;4877640;29;20406;-91
2022/11/28 03:49:41;;;;;;;7.43;1.40;;;;;;;6.14;100.00;98915.88;4880810;29;20067;-91
2022/11/28 03:52:16;;;;;;;17.77;2.25;;;;;;;6.15;100.00;98934.06;4881529;29;20036;-90
2022/11/28 03:54:55;;;;;;;9.45;1.45;;;;;;;6.14;100.00;98921.94;4881796;29;20127;-90
2022/11/28 03:57:46;;;;;;;7.72;1.13;;;;;;;6.17;100.00;98947.03;4896406;29;20040;-91
2022/11/28 04:00:16;;;;;;;7.03;0.90;;;;;;;6.14;100.00;98939.47;4881351;29;20047;-91
2022/11/28 04:02:51;;;;;;;11.27;1.30;;;;;;;6.12;100.00;98952.75;4880672;29;20071;-91
2022/11/28 04:05:25;;;;;;;5.75;1.50;;;;;;;6.13;100.00;98954.38;4859020;29;20037;-91
2022/11/28 04:08:20;;;;;;;11.10;1.27;;;;;;;6.09;100.00;98950.44;4874992;29;20041;-91
2022/11/28 04:11:05;;;;;;;8.27;0.88;;;;;;;6.06;100.00;98953.34;4876074;29;20076;-94
2022/11/28 04:13:43;;;;;;;11.40;1.40;;;;;;;6.04;100.00;98950.88;4865805;29;20040;-94
2022/11/28 04:16:18;;;;;;;10.63;1.30;;;;;;;6.02;100.00;98952.78;4880819;29;20036;-91
2022/11/28 04:19:24;;;;;;;6.88;1.27;;;;;;;6.05;100.00;98954.34;4880507;29;20104;-91
2022/11/28 04:22:08;;;;;;;7.90;1.05;;;;;;;5.99;100.00;98950.47;4880325;29;20104;-92
2022/11/28 04:24:44;;;;;;;10.05;1.10;;;;;;;5.98;100.00;98963.75;4890432;29;20084;-91
2022/11/28 04:27:17;;;;;;;;;;;;;;;5.90;100.00;98954.84;4878082;29;20048;-91
2022/11/28 04:29:52;;;;;;;8.82;1.25;;;;;;;5.95;100.00;98957.84;4893719;29;19924;-91
2022/11/28 04:32:25;;;;;;;8.15;0.98;;;;;;;5.98;100.00;98959.34;4864967;29;20147;-91
2022/11/28 04:35:00;;;;;;;5.55;1.00;;;;;;;5.99;100.00;98957.53;4895370;29;20071;-91
2022/11/28 04:37:34;;;;;;;10.35;1.20;;;;;;;5.96;100.00;98963.91;4864372;29;20037;-91
2022/11/28 04:40:07;;;;;;;10.98;1.00;;;;;;;5.94;100.00;98964.03;4873975;29;20682;-91
2022/11/28 04:42:42;;;;;;;8.70;1.00;;;;;;;5.89;100.00;98965.50;4885522;29;20061;-92
2022/11/28 04:45:21;;;;;;;9.07;1.23;;;;;;;5.86;100.00;98965.78;4875423;29;20073;-91
2022/11/28 04:47:51;;;;;;;6.50;1.23;;;;;;;5.79;100.00;98965.56;4881092;29;20063;-91
2022/11/28 04:50:24;;;;;;;6.85;0.82;;;;;;;5.78;100.00;98969.16;4893965;29;20051;-91
2022/11/28 04:53:04;;;;;;;6.95;1.15;;;;;;;5.77;100.00;98978.81;4855655;29;20156;-91
2022/11/28 04:56:06;;;;;;;15.68;1.25;;;;;;;5.72;100.00;98973.19;4880714;29;20069;-91
2022/11/28 04:58:47;;;;;;;4.60;1.33;;;;;;;5.68;100.00;98972.69;4902305;29;20052;-91
2022/11/28 05:01:26;;;;;;;4.25;0.98;;;;;;;5.67;100.00;98983.31;4876935;29;20366;-91
2022/11/28 05:03:54;;;;;;;6.93;0.80;;;;;;;5.63;100.00;98984.56;4855228;29;20045;-91
2022/11/28 05:06:28;;;;;;;11.60;1.27;;;;;;;5.64;100.00;98981.00;4868122;29;20051;-91
2022/11/28 05:08:56;;;;;;;12.60;4.88;;;;;;;5.58;100.00;98993.72;4882184;29;20033;-91
2022/11/28 05:11:27;;;;;;;13.30;1.33;;;;;;;5.60;100.00;98998.81;4868386;29;20139;-91
2022/11/28 05:13:57;;;;;;;5.22;0.70;;;;;;;5.57;100.00;98997.28;4884621;29;20374;-91
2022/11/28 05:16:26;;;;;;;10.45;1.67;;;;;;;5.55;100.00;99006.28;4884577;29;20055;-90
2022/11/28 05:18:55;;;;;;;4.45;0.90;;;;;;;5.50;100.00;99005.88;4883972;29;20648;-91
2022/11/28 05:21:23;;;;;;;5.05;0.70;;;;;;;5.44;100.00;99016.00;4900355;29;20049;-91
2022/11/28 05:23:53;;;;;;;8.38;1.20;;;;;;;5.43;100.00;99014.34;4883395;29;20107;-91
2022/11/28 05:26:23;;;;;;;9.82;1.00;;;;;;;5.39;100.00;99026.09;4868056;29;20497;-95
2022/11/28 05:28:52;;;;;;;8.68;1.38;;;;;;;5.36;100.00;99025.56;4883685;29;20040;-95
2022/11/28 05:31:21;;;;;;;7.07;0.98;;;;;;;5.33;100.00;99035.38;4873626;29;20033;-91
2022/11/28 05:33:49;;;;;;;6.47;1.15;;;;;;;5.33;100.00;99027.50;4867221;29;20037;-91
2022/11/28 05:36:17;;;;;;;8.13;1.15;;;;;;;5.34;100.00;99044.88;4880284;29;20033;-94
2022/11/28 05:38:46;;;;;;;7.28;1.08;;;;;;;5.41;100.00;99047.75;4883190;29;20104;-94
2022/11/28 05:41:25;;;;;;;9.95;0.98;;;;;;;5.50;100.00;99055.69;4884228;29;20123;-91
2022/11/28 05:43:56;;;;;;;6.93;1.55;;;;;;;5.54;100.00;99057.88;4857392;29;20485;-91
2022/11/28 05:46:27;;;;;;;13.85;1.20;;;;;;;5.57;100.00;99062.81;4883308;29;20045;-92
2022/11/28 05:48:56;;;;;;;10.25;1.10;;;;;;;5.60;100.00;99061.72;4883140;29;20056;-91
2022/11/28 05:51:24;;;;;;;11.07;1.20;;;;;;;5.62;100.00;99067.66;4867809;29;20040;-92
2022/11/28 05:53:52;;;;;;;6.72;0.75;;;;;;;5.68;100.00;99067.06;4883981;29;20119;-92
2022/11/28 05:56:24;;;;;;;8.60;1.17;;;;;;;5.74;100.00;99068.25;4883879;29;20473;-93
2022/11/28 05:58:54;;;;;;;6.95;1.08;;;;;;;5.80;100.00;99074.69;4868703;29;20127;-91
2022/11/28 06:01:29;;;;;;;7.38;1.65;;;;;;;5.85;100.00;99075.09;4881708;29;20044;-95
2022/11/28 06:03:59;;;;;;;11.50;1.40;;;;;;;5.84;100.00;99084.75;4909284;29;20382;-96
2022/11/28 06:06:32;;;;;;;11.52;1.10;;;;;;;5.89;100.00;99086.91;4884179;29;20048;-91
2022/11/28 06:09:01;;;;;;;7.53;1.38;;;;;;;5.91;100.00;99089.44;4872731;29;20081;-92
2022/11/28 06:11:32;;;;;;;6.90;0.90;;;;;;;5.93;100.00;99088.28;4898569;29;20481;-95
2022/11/28 06:13:59;;;;;;;7.82;1.23;;;;;;;5.94;100.00;99083.88;4869158;29;20048;-94
2022/11/28 06:16:29;;;;;;;6.53;1.67;;;;;;;5.99;100.00;99092.13;4883892;29;20041;-92
2022/11/28 06:18:59;;;;;;;10.55;1.42;;;;;;;5.98;100.00;99095.72;4884969;29;20132;-92
2022/11/28 06:21:29;;;;;;;5.95;1.08;;;;;;;5.99;100.00;99109.66;4902103;29;20070;-95
2022/11/28 06:24:00;;;;;;;6.88;0.90;;;;;;;6.00;100.00;99109.53;4880471;29;20041;-95
2022/11/28 06:26:29;;;;;;;4.85;1.00;;;;;;;6.02;100.00;99117.25;4877768;29;20052;-90
2022/11/28 06:28:59;;;;;;;8.63;1.40;;;;;;;6.01;100.00;99121.66;4859151;29;20037;-92
2022/11/28 06:31:29;;;;;;;5.28;0.90;;;;;;;6.02;100.00;99122.50;4874393;29;20064;-92
2022/11/28 06:33:58;;;;;;;6.10;1.40;;;;;;;6.00;100.00;99130.50;4864279;29;20042;-92
2022/11/28 06:36:26;;;;;;;16.48;1.48;;;;;;;5.99;100.00;99139.31;4865527;29;20052;-90
2022/11/28 06:38:54;;;;;;;10.85;1.00;;;;;;;5.96;100.00;99137.00;4862311;29;20031;-92
2022/11/28 06:41:21;;;;;;;8.20;0.98;;;;;;;5.94;100.00;99138.97;4865236;29;20037;-91
2022/11/28 06:43:49;;;;;;;7.05;1.10;;;;;;;5.93;100.00;99142.53;4862996;29;20092;-91
2022/11/28 06:46:19;;;;;;;4.72;1.08;;;;;;;5.98;100.00;99149.97;4862202;29;20081;-94
2022/11/28 06:48:48;;;;;;;10.27;2.13;;;;;;;6.01;100.00;99149.66;4850455;29;20048;-95
2022/11/28 06:51:17;;;;;;;14.27;0.95;;;;;;;6.09;100.00;99157.66;4875384;29;20033;-94
2022/11/28 06:53:45;;;;;;;13.15;0.90;;;;;;;6.11;100.00;99162.78;4876631;29;20040;-95
2022/11/28 06:56:15;;;;;;;3.88;0.75;;;;;;;6.18;100.00;99163.84;4863478;29;20033;-91
2022/11/28 06:58:44;;;;;;;5.78;1.27;;;;;;;6.20;100.00;99165.34;4806563;29;20029;-91
2022/11/28 07:01:20;;;;;;;10.73;1.42;;;;;;;6.27;100.00;99167.38;4822737;29;20571;-91
2022/11/28 07:03:50;;;;;;;13.07;1.42;;;;;;;6.27;100.00;99176.09;4879547;29;20071;-91
2022/11/28 07:06:22;;;;;;;13.88;1.80;;;;;;;6.30;100.00;99178.41;4863493;29;20076;-92
2022/11/28 07:08:52;;;;;;;12.63;1.42;;;;;;;6.35;100.00;99185.00;4879458;29;20124;-92
2022/11/28 07:11:24;;;;;;;11.50;1.20;;;;;;;6.38;100.00;99189.94;4864186;29;20033;-92
2022/11/28 07:13:53;;;;;;;6.75;1.20;;;;;;;6.38;100.00;99197.81;4864609;29;20025;-93
2022/11/28 07:16:26;;;;;;;19.63;10.02;;;;;;;6.42;100.00;99189.50;4864333;29;20474;-93
2022/11/28 07:18:55;;;;;;;9.70;2.00;;;;;;;6.45;100.00;99202.31;4864059;29;20741;-92
2022/11/28 07:21:24;;;;;;;10.93;1.75;;;;;;;6.48;100.00;99200.41;4870129;29;20037;-92
2022/11/28 07:23:52;;;;;;;12.50;1.75;;;;;;;6.51;100.00;99203.56;4846652;29;20555;-92
2022/11/28 07:26:21;;;;;;;8.98;1.30;;;;;;;6.55;100.00;99207.53;4863493;29;20068;-92
2022/11/28 07:28:50;;;;;;;10.65;1.33;;;;;;;6.56;100.00;99205.72;4880805;29;20068;-92
2022/11/28 07:31:21;;;;;;;15.73;1.42;;;;;;;6.57;100.00;99220.50;4882140;29;20033;-94
2022/11/28 07:33:51;;;;;;;11.20;1.30;;;;;;;6.58;100.00;99227.38;4879381;29;20044;-94
2022/11/28 07:36:24;;;;;;;10.00;1.02;;;;;;;6.60;100.00;99229.88;4880060;29;20039;-92
2022/11/28 07:38:58;;;;;;;8.75;1.17;;;;;;;6.61;100.00;99245.47;4865610;29;20112;-92
2022/11/28 07:41:28;;;;;;;8.25;1.27;;;;;;;6.62;100.00;99243.69;4909712;29;20043;-92
2022/11/28 07:43:59;;;;;;;14.27;1.88;;;;;;;6.67;100.00;99246.69;4879081;29;20081;-93
2022/11/28 07:46:30;;;;;;;9.57;1.60;;;;;;;6.67;100.00;99249.31;4876542;29;20155;-91
2022/11/28 07:49:01;;;;;;;12.60;1.75;;;;;;;6.68;100.00;99259.69;4879248;29;20040;-92
2022/11/28 07:51:33;;;;;;;10.73;1.30;;;;;;;6.69;100.00;99265.72;4877319;29;20039;-92
2022/11/28 07:54:04;;;;;;;12.68;2.58;;;;;;;6.72;100.00;99264.63;4888906;29;20048;-92
2022/11/28 07:56:36;;;;;;;13.55;2.17;;;;;;;6.73;100.00;99274.16;4889696;29;20116;-92
2022/11/28 07:59:07;;;;;;;14.95;2.53;;;;;;;6.76;100.00;99274.69;4871637;29;20043;-92
2022/11/28 08:01:37;;;;;;;12.75;1.48;;;;;;;6.78;100.00;99285.88;4881668;29;20066;-92
2022/11/28 08:04:09;;;;;;;13.15;2.05;;;;;;;6.80;100.00;99277.84;4892901;29;20040;-93
2022/11/28 08:06:43;;;;;;;14.27;2.00;;;;;;;6.82;100.00;99289.84;4886413;29;20037;-93
2022/11/28 08:09:11;;;;;;;10.10;2.25;;;;;;;6.82;100.00;99284.59;4859095;29;20060;-93
2022/11/28 08:11:40;;;;;;;15.38;1.45;;;;;;;6.83;100.00;99293.31;4890592;29;20040;-92
2022/11/28 08:14:10;;;;;;;21.08;2.42;;;;;;;6.87;100.00;99296.44;4853513;29;20543;-92
2022/11/28 08:16:43;;;;;;;15.70;2.20;;;;;;;6.88;100.00;99298.13;4880319;29;20059;-92
2022/11/28 08:19:13;;;;;;;20.45;2.45;;;;;;;6.89;100.00;99303.22;4870015;29;20031;-92
2022/11/28 08:21:43;;;;;;;14.13;2.03;;;;;;;6.93;100.00;99306.34;4875786;29;20041;-93
2022/11/28 08:24:13;;;;;;;13.38;2.15;;;;;;;6.99;100.00;99308.38;4901995;29;20093;-93
2022/11/28 08:26:42;;;;;;;13.95;2.35;;;;;;;7.00;100.00;99325.00;4895550;29;20092;-93
2022/11/28 08:29:10;;;;;;;21.27;4.20;;;;;;;7.02;100.00;99325.69;4903092;29;20112;-92
2022/11/28 08:31:40;;;;;;;12.35;1.83;;;;;;;7.04;100.00;99331.63;4879335;29;20131;-93
2022/11/28 08:34:11;;;;;;;21.17;3.50;;;;;;;7.06;100.00;99338.38;4880510;29;20389;-92
2022/11/28 08:36:42;;;;;;;20.05;4.10;;;;;;;7.08;100.00;99348.72;4875784;29;20247;-92
2022/11/28 08:39:12;;;;;;;14.77;2.42;;;;;;;7.11;100.00;99337.09;4893260;29;20056;-92
2022/11/28 08:41:40;;;;;;;12.05;2.10;;;;;;;7.15;100.00;99343.72;4879847;29;20052;-92
2022/11/28 08:44:08;;;;;;;15.15;2.17;;;;;;;7.14;100.00;99353.38;4905554;29;20033;-91
2022/11/28 08:46:36;;;;;;;14.15;2.22;;;;;;;7.16;100.00;99363.75;4875805;29;20047;-94
2022/11/28 08:49:04;;;;;;;16.85;3.30;;;;;;;7.14;100.00;99363.06;4894948;29;20040;-92
2022/11/28 08:51:32;;;;;;;15.77;2.38;;;;;;;7.22;100.00;99367.56;4891950;29;20540;-92
2022/11/28 08:54:00;;;;;;;15.05;2.00;;;;;;;7.20;100.00;99365.09;4874544;29;20103;-93
2022/11/28 08:56:34;;;;;;;12.65;2.38;;;;;;;7.26;100.00;99380.25;4875746;29;20471;-96
2022/11/28 08:59:03;;;;;;;12.07;3.03;;;;;;;7.25;100.00;99386.50;4877722;29;20072;-92
2022/11/28 09:01:30;;;;;;;10.00;2.10;;;;;;;7.27;100.00;99389.81;4879870;29;20182;-92
2022/11/28 09:03:59;;;;;;;14.02;2.70;;;;;;;7.26;100.00;99388.16;4865494;29;20032;-93
2022/11/28 09:06:26;;;;;;;15.90;2.50;;;;;;;7.29;100.00;99408.88;4894119;29;20388;-91
2022/11/28 09:08:54;;;;;;;15.90;2.92;;;;;;;7.28;100.00;99415.13;4874924;29;20830;-92
2022/11/28 09:11:22;;;;;;;13.80;2.13;;;;;;;7.28;100.00;99425.63;4880637;29;20045;-93
2022/11/28 09:13:51;;;;;;;23.88;5.43;;;;;;;7.26;100.00;99430.19;4895196;29;20041;-93
2022/11/28 09:16:18;;;;;;;19.58;2.28;;;;;;;7.24;100.00;99423.44;4871442;29;20119;-92
2022/11/28 09:18:46;;;;;;;14.00;2.45;;;;;;;7.25;100.00;99438.22;4888214;29;20088;-92
2022/11/28 09:21:14;;;;;;;18.63;3.22;;;;;;;7.28;100.00;99436.16;4873503;29;20029;-91
2022/11/28 09:23:44;;;;;;;17.05;3.38;;;;;;;7.28;100.00;99451.09;4874421;29;20041;-92
2022/11/28 09:26:19;;;;;;;12.30;1.67;;;;;;;7.31;100.00;99459.50;4878133;29;20061;-93
2022/11/28 09:28:47;;;;;;;;;;;;;;;7.20;100.00;99454.44;4898165;29;20490;-92
2022/11/28 09:31:16;;;;;;;13.13;2.03;;;;;;;7.26;100.00;99450.41;4892886;29;19946;-92
2022/11/28 09:33:45;;;;;;;10.80;1.85;;;;;;;7.26;100.00;99466.19;4907508;29;20533;-92
2022/11/28 09:36:15;;;;;;;17.20;2.30;;;;;;;7.28;100.00;99457.19;4877513;29;20494;-92
2022/11/28 09:38:43;;;;;;;11.73;1.42;;;;;;;7.28;100.00;99459.81;4866193;29;20033;-92
2022/11/28 09:41:53;;;;;;;9.07;1.58;;;;;;;7.31;100.00;99467.41;4864534;29;20073;-92
2022/11/28 09:44:23;;;;;;;8.32;1.42;;;;;;;7.31;100.00;99470.03;4882135;29;20040;-92
2022/11/28 09:46:54;;;;;;;6.47;1.25;;;;;;;7.34;100.00;99475.97;4869351;29;20076;-92
2022/11/28 09:49:33;;;;;;;12.30;1.38;;;;;;;7.38;100.00;99480.78;4867130;29;20037;-91
2022/11/28 09:52:15;;;;;;;9.55;1.52;;;;;;;7.38;100.00;99482.56;4865515;29;20192;-93
2022/11/28 09:54:45;;;;;;;9.68;1.33;;;;;;;7.38;100.00;99495.72;4894657;29;20049;-92
2022/11/28 09:57:40;;;;;;;10.50;1.17;;;;;;;7.41;100.00;99508.56;4892177;29;20029;-92
2022/11/28 10:00:22;;;;;;;8.25;1.15;;;;;;;7.42;100.00;99513.69;4900652;29;20040;-92
2022/11/28 10:03:08;;;;;;;8.43;0.95;;;;;;;7.38;100.00;99507.06;4877768;29;20417;-93
2022/11/28 10:05:48;;;;;;;6.93;1.02;;;;;;;7.42;100.00;99523.38;4882861;29;20068;-93
2022/11/28 10:08:39;;;;;;;10.43;1.40;;;;;;;7.41;100.00;99522.56;4911932;29;20028;-92
2022/11/28 10:11:25;;;;;;;4.93;0.80;;;;;;;7.41;100.00;99527.81;4881377;29;20606;-89
2022/11/28 10:14:29;;;;;;;9.73;1.45;;;;;;;7.44;100.00;99534.56;4893279;29;20387;-92
2022/11/28 10:17:01;;;;;;;8.95;1.00;;;;;;;7.51;100.00;99548.81;4867275;29;20554;-92
2022/11/28 10:19:40;;;;;;;6.90;1.40;;;;;;;7.59;100.00;99553.31;4892621;29;20128;-92
2022/11/28 10:22:17;;;;;;;12.13;3.42;;;;;;;7.65;100.00;99567.69;4881462;29;20045;-92
2022/11/28 10:25:00;;;;;;;6.85;1.10;;;;;;;7.76;100.00;99571.91;4862114;29;20056;-92
2022/11/28 10:27:35;;;;;;;8.40;1.30;;;;;;;7.85;100.00;99578.09;4880997;29;20032;-92
2022/11/28 10:30:09;;;;;;;10.88;1.13;;;;;;;7.94;100.00;99575.41;4881076;29;20044;-92
2022/11/28 10:32:47;;;;;;;15.18;1.83;;;;;;;7.99;100.00;99585.50;4859460;29;20036;-92
2022/11/28 10:35:46;;;;;;;8.82;2.15;;;;;;;8.01;100.00;99587.97;4879704;29;21184;-92
2022/11/28 10:38:19;;;;;;;10.90;1.35;;;;;;;8.03;100.00;99589.47;4879899;29;20183;-92
2022/11/28 10:40:58;;;;;;;9.13;1.13;;;;;;;8.02;100.00;99595.72;4897781;29;20036;-93
2022/11/28 10:48:44;;;;;;;6.53;0.70;;;;;;;8.10;100.00;99615.19;4861584;29;20045;-93
2022/11/28 10:51:34;;;;;;;15.20;9.73;;;;;;;8.14;100.00;99616.53;4855082;29;20347;-93
2022/11/28 10:54:42;;;;;;;10.32;1.42;;;;;;;8.23;100.00;99626.19;4884975;29;20371;-92
2022/11/28 10:57:20;;;;;;;13.68;1.40;;;;;;;8.27;100.00;99632.81;4895228;29;20474;-93
2022/11/28 10:59:53;;;;;;;10.13;1.05;;;;;;;8.31;100.00;99642.06;4879448;29;20482;-93
2022/11/28 11:02:53;;;;;;;13.02;1.77;;;;;;;8.33;100.00;99647.16;4882939;29;20108;-95
2022/11/28 11:05:29;;;;;;;9.85;1.38;;;;;;;8.39;100.00;99645.75;4864018;29;20052;-94
2022/11/28 11:08:02;;;;;;;13.48;1.52;;;;;;;8.41;100.00;99657.78;4893832;29;20512;-92
2022/11/28 11:10:43;;;;;;;8.20;1.42;;;;;;;8.43;100.00;99663.75;4878335;29;20044;-92
2022/11/28 11:13:24;;;;;;;7.65;1.38;;;;;;;8.47;100.00;99661.66;4893430;29;20044;-92
2022/11/28 11:16:03;;;;;;;8.90;1.48;;;;;;;8.48;100.00;99665.09;4881255;29;20636;-92
2022/11/28 11:18:38;;;;;;;11.32;1.88;;;;;;;8.45;100.00;99666.22;4880504;29;20035;-90
2022/11/28 11:21:23;;;;;;;12.55;3.13;;;;;;;8.44;100.00;99675.94;4863606;29;20088;-93
2022/11/28 11:24:17;;;;;;;15.30;5.55;;;;;;;8.43;100.00;99679.56;4888155;29;20056;-93
2022/11/28 11:26:51;;;;;;;8.63;1.70;;;;;;;8.46;100.00;99685.50;4907967;29;20044;-94
2022/11/28 11:29:28;;;;;;;11.77;1.92;;;;;;;8.46;100.00;99693.41;4879252;29;20162;-93
2022/11/28 11:32:02;;;;;;;13.25;2.67;;;;;;;8.43;100.00;99687.44;4878794;29;20192;-92
2022/11/28 11:34:37;;;;;;;7.32;1.92;;;;;;;8.48;100.00;99696.69;4895751;29;20054;-92
2022/11/28 11:37:21;;;;;;;12.20;1.40;;;;;;;8.47;100.00;99693.25;4879695;29;20621;-93
2022/11/28 11:39:52;;;;;;;6.30;0.90;;;;;;;8.57;100.00;99690.56;4880837;29;20032;-90
2022/11/28 11:42:28;;;;;;;5.40;1.45;;;;;;;8.61;100.00;99706.91;4895961;29;20029;-93
2022/11/28 11:45:23;;;;;;;4.38;1.05;;;;;;;8.67;100.00;99698.41;4880560;29;20047;-92
2022/11/28 11:47:53;;;;;;;10.10;1.70;;;;;;;8.77;100.00;99712.34;4865238;29;20040;-93
2022/11/28 11:50:25;;;;;;;12.25;1.40;;;;;;;8.87;100.00;99717.50;4864713;29;20040;-93
2022/11/28 11:53:04;;;;;;;9.98;1.25;;;;;;;8.96;100.00;99702.63;4893245;29;20043;-93
2022/11/28 11:55:49;;;;;;;13.07;1.13;;;;;;;9.02;100.00;99714.34;4868816;29;20033;-93
2022/11/28 11:58:23;;;;;;;4.85;1.00;;;;;;;9.04;100.00;99713.22;4894127;29;20060;-92
2022/11/28 12:00:57;;;;;;;4.15;1.10;;;;;;;9.16;100.00;99712.97;4865384;29;20121;-93
2022/11/28 12:03:30;;;;;;;12.13;1.85;;;;;;;9.28;100.00;99709.13;4894413;29;20047;-93
2022/11/28 12:06:12;;;;;;;7.07;0.93;;;;;;;9.38;100.00;99719.56;4895371;29;20040;-93
2022/11/28 12:08:51;;;;;;;6.80;1.10;;;;;;;9.40;100.00;99722.03;4878272;29;20045;-93
2022/11/28 12:11:27;;;;;;;7.68;1.60;;;;;;;9.39;100.00;99715.94;4873480;29;20036;-95
2022/11/28 12:13:59;;;;;;;;;;;;;;;9.28;100.00;99724.13;4878078;29;20041;-93